Time;durP1;ratioP1;P1;durP2;ratioP2;P2;SDS_P1;SDS_P2;PMS_P1;PMS_P2;Temp;Humidity;BMP_temperature;BMP_pressure;BME280_temperature;BME280_humidity;BME280_pressure;Samples;Min_cycle;Max_cycle;Signal;HPM_P1;HPM_P2
2023/06/13 00:01:30;;;;;;;27.58;12.73;;;20.10;84.50;;;;;;5093219;28;20070;-68
2023/06/13 00:03:56;;;;;;;32.28;12.45;;;21.40;81.20;;;;;;5076619;28;20040;-68
2023/06/13 00:06:23;;;;;;;29.10;12.52;;;20.40;85.00;;;;;;5093196;28;20111;-69
2023/06/13 00:08:49;;;;;;;24.05;12.60;;;19.90;84.80;;;;;;5093803;28;20052;-68
2023/06/13 00:11:14;;;;;;;23.85;12.23;;;20.30;85.10;;;;;;5093433;28;20063;-69
2023/06/13 00:13:41;;;;;;;25.10;12.60;;;20.70;85.30;;;;;;5093265;28;20044;-69
2023/06/13 00:16:08;;;;;;;24.10;12.50;;;21.60;85.80;;;;;;5093349;28;20051;-68
2023/06/13 00:18:37;;;;;;;22.15;11.77;;;19.90;84.90;;;;;;5087765;28;20040;-68
2023/06/13 00:21:06;;;;;;;34.45;13.70;;;21.50;85.70;;;;;;5072780;28;20050;-68
2023/06/13 00:23:32;;;;;;;22.63;12.30;;;20.40;85.20;;;;;;5089198;28;20054;-68
2023/06/13 00:25:57;;;;;;;23.83;12.60;;;20.20;85.20;;;;;;5093340;28;20043;-68
2023/06/13 00:28:23;;;;;;;24.35;12.73;;;21.70;86.00;;;;;;5076090;28;20055;-69
2023/06/13 00:30:49;;;;;;;24.10;12.15;;;19.70;84.80;;;;;;5093266;28;20502;-68
2023/06/13 00:33:18;;;;;;;23.73;11.88;;;21.40;85.90;;;;;;5089545;28;20486;-69
2023/06/13 00:35:44;;;;;;;23.42;11.65;;;19.40;85.00;;;;;;5088729;28;20095;-68
2023/06/13 00:38:10;;;;;;;27.10;12.10;;;20.20;75.30;;;;;;5072614;28;20049;-68
2023/06/13 00:40:38;;;;;;;24.90;11.32;;;20.30;75.80;;;;;;5072458;28;20119;-68
2023/06/13 00:43:03;;;;;;;21.00;11.10;;;20.80;80.90;;;;;;5072328;28;20051;-69
2023/06/13 00:45:31;;;;;;;31.08;11.85;;;;;;;;;;5072604;28;20044;-68
2023/06/13 00:48:05;;;;;;;27.83;11.27;;;20.40;74.20;;;;;;5072400;28;20102;-69
2023/06/13 00:50:34;;;;;;;20.48;10.57;;;21.30;86.70;;;;;;5091366;28;20036;-68
2023/06/13 00:53:09;;;;;;;19.63;10.43;;;20.80;79.10;;;;;;5075409;28;20082;-68
2023/06/13 00:55:36;;;;;;;19.70;9.77;;;20.90;86.90;;;;;;5092635;28;20048;-68
2023/06/13 00:58:05;;;;;;;21.13;11.15;;;20.20;76.80;;;;;;5092333;28;20048;-68
2023/06/13 01:00:33;;;;;;;21.33;10.88;;;21.10;87.50;;;;;;5075686;28;20040;-68
2023/06/13 01:02:59;;;;;;;26.77;11.05;;;20.40;87.30;;;;;;5092249;28;20059;-68
2023/06/13 01:05:28;;;;;;;22.65;10.68;;;20.30;77.50;;;;;;5091743;28;20115;-68
2023/06/13 01:07:57;;;;;;;19.42;10.25;;;18.90;86.00;;;;;;5092650;28;20044;-70
2023/06/13 01:10:29;;;;;;;20.50;10.68;;;19.70;87.50;;;;;;5089905;28;20051;-71
2023/06/13 01:13:04;;;;;;;26.25;10.60;;;19.90;78.50;;;;;;5074337;28;20467;-71
2023/06/13 01:15:34;;;;;;;18.10;9.82;;;18.80;83.50;;;;;;5072221;28;20056;-71
2023/06/13 01:18:03;;;;;;;23.10;9.70;;;20.50;87.20;;;;;;5071910;28;20044;-71
2023/06/13 01:20:32;;;;;;;23.52;10.02;;;20.70;88.80;;;;;;5072047;28;20036;-71
2023/06/13 01:23:28;;;;;;;15.57;9.18;;;20.80;87.80;;;;;;5071843;28;20480;-71
2023/06/13 01:26:15;;;;;;;20.80;9.57;;;20.70;89.10;;;;;;5074544;28;20048;-71
2023/06/13 01:28:45;;;;;;;18.15;8.88;;;18.70;88.10;;;;;;5092072;28;20040;-71
2023/06/13 01:31:16;;;;;;;20.50;10.27;;;20.70;81.50;;;;;;5072704;28;20635;-71
2023/06/13 01:33:42;;;;;;;16.75;10.00;;;18.50;88.30;;;;;;5081910;28;20126;-71
2023/06/13 01:36:08;;;;;;;19.88;9.52;;;20.10;80.40;;;;;;5091927;28;20565;-71
2023/06/13 01:38:35;;;;;;;24.30;8.52;;;18.20;81.80;;;;;;5081682;28;20048;-71
2023/06/13 01:41:01;;;;;;;18.63;8.80;;;19.80;89.50;;;;;;5084597;28;20033;-71
2023/06/13 01:43:27;;;;;;;16.30;8.60;;;20.10;89.80;;;;;;5083537;28;20043;-71
2023/06/13 01:46:05;;;;;;;17.50;8.70;;;19.60;89.80;;;;;;5084827;28;20044;-71
2023/06/13 01:48:59;;;;;;;17.83;9.45;;;19.90;90.00;;;;;;5093564;28;20051;-71
2023/06/13 01:51:35;;;;;;;17.73;8.88;;;20.30;90.20;;;;;;5091789;28;20047;-70
2023/06/13 01:54:09;;;;;;;24.02;9.80;;;19.30;78.90;;;;;;5093754;28;20047;-70
2023/06/13 01:56:37;;;;;;;17.15;8.07;;;19.20;81.20;;;;;;5076903;28;20047;-70
2023/06/13 01:59:06;;;;;;;16.55;8.60;;;19.80;90.30;;;;;;5095957;28;20079;-71
2023/06/13 02:01:34;;;;;;;20.50;8.75;;;19.10;90.10;;;;;;5093429;28;20044;-71
2023/06/13 02:04:03;;;;;;;17.95;8.23;;;19.60;90.30;;;;;;5075524;28;20536;-71
2023/06/13 02:06:29;;;;;;;13.90;8.45;;;20.20;80.80;;;;;;5093609;28;20520;-71
2023/06/13 02:08:56;;;;;;;19.42;8.30;;;18.90;85.80;;;;;;5095806;28;20044;-71
2023/06/13 02:11:22;;;;;;;14.45;8.32;;;19.90;90.50;;;;;;5095812;28;20048;-71
2023/06/13 02:13:48;;;;;;;19.55;7.70;;;;;;;;;;5078711;28;20409;-70
2023/06/13 02:16:14;;;;;;;19.17;9.02;;;18.70;90.30;;;;;;5095522;28;20051;-71
2023/06/13 02:18:41;;;;;;;19.13;10.60;;;;;;;;;;5077261;28;20126;-74
2023/06/13 02:21:07;;;;;;;17.48;9.35;;;18.70;82.60;;;;;;5067872;28;20040;-74
2023/06/13 02:23:33;;;;;;;18.15;8.48;;;;;;;;;;5074061;28;20037;-74
2023/06/13 02:25:59;;;;;;;16.83;8.10;;;19.30;91.10;;;;;;5058182;28;20044;-75
2023/06/13 02:28:25;;;;;;;17.60;8.40;;;;;;;;;;5075332;28;20044;-75
2023/06/13 02:30:52;;;;;;;18.58;8.40;;;18.10;90.80;;;;;;5058358;28;20109;-74
2023/06/13 02:33:18;;;;;;;16.25;7.65;;;;;;;;;;5074984;28;20044;-73
2023/06/13 02:35:47;;;;;;;24.67;7.70;;;18.20;90.90;;;;;;5058203;28;20054;-74
2023/06/13 02:38:13;;;;;;;17.67;8.75;;;;;;;;;;5058247;28;20044;-74
2023/06/13 02:40:39;;;;;;;15.10;7.50;;;19.70;91.30;;;;;;5080072;28;20032;-74
2023/06/13 02:43:05;;;;;;;24.50;8.30;;;;;;;;;;5094698;28;20032;-74
2023/06/13 02:45:31;;;;;;;23.02;7.63;;;19.30;91.20;;;;;;5078063;28;20035;-74
2023/06/13 02:47:57;;;;;;;16.15;7.72;;;17.50;88.10;;;;;;5078386;28;20040;-74
2023/06/13 02:50:24;;;;;;;15.73;8.25;;;;;;;;;;5093438;28;20412;-71
2023/06/13 02:52:49;;;;;;;14.50;7.75;;;17.90;90.00;;;;;;5076437;28;20070;-71
2023/06/13 02:55:15;;;;;;;17.75;7.55;;;17.40;90.80;;;;;;5090198;28;20555;-71
2023/06/13 02:57:41;;;;;;;16.17;7.53;;;;;;;;;;5094728;28;20054;-73
2023/06/13 03:00:10;;;;;;;16.17;7.60;;;17.40;84.80;;;;;;5086788;28;20484;-71
2023/06/13 03:02:39;;;;;;;18.42;7.97;;;19.20;83.70;;;;;;5082439;28;20056;-71
2023/06/13 03:05:10;;;;;;;13.80;7.65;;;18.10;91.20;;;;;;5090354;28;20094;-71
2023/06/13 03:07:42;;;;;;;14.53;7.83;;;17.30;91.10;;;;;;5094565;28;20068;-71
2023/06/13 03:10:08;;;;;;;18.17;8.25;;;19.10;91.60;;;;;;5089959;28;20047;-71
2023/06/13 03:12:34;;;;;;;15.02;8.07;;;;;;;;;;5074249;28;20411;-71
2023/06/13 03:15:00;;;;;;;23.15;8.50;;;19.30;85.50;;;;;;5074129;28;20439;-71
2023/06/13 03:17:26;;;;;;;20.55;10.30;;;;;;;;;;5077154;28;20128;-71
2023/06/13 03:19:52;;;;;;;15.50;9.77;;;;;;;;;;5088724;28;20051;-71
2023/06/13 03:22:18;;;;;;;16.52;9.07;;;17.80;91.50;;;;;;5089728;28;20340;-72
2023/06/13 03:24:45;;;;;;;23.70;15.50;;;;;;;;;;5077221;28;20040;-72
2023/06/13 03:27:14;;;;;;;15.13;8.60;;;19.10;91.80;;;;;;5089555;28;20131;-72
2023/06/13 03:29:41;;;;;;;26.50;13.52;;;17.60;88.30;;;;;;5083312;28;20380;-71
2023/06/13 03:32:11;;;;;;;20.45;10.75;;;18.10;82.90;;;;;;5073980;28;20069;-71
2023/06/13 03:34:39;;;;;;;25.38;10.85;;;18.60;91.90;;;;;;5095998;28;20035;-71
2023/06/13 03:37:06;;;;;;;24.25;11.43;;;18.10;85.30;;;;;;5104305;28;20127;-71
2023/06/13 03:39:32;;;;;;;18.30;10.20;;;19.30;85.50;;;;;;5071566;28;20048;-72
2023/06/13 03:41:58;;;;;;;15.68;9.23;;;17.70;91.90;;;;;;5073975;28;20040;-71
2023/06/13 03:44:24;;;;;;;19.48;10.95;;;18.10;88.60;;;;;;5081442;28;20419;-68
2023/06/13 03:46:50;;;;;;;16.38;8.00;;;17.90;92.00;;;;;;5094120;28;20044;-69
2023/06/13 03:49:16;;;;;;;17.60;11.20;;;;;;;;;;5077382;28;20074;-68
2023/06/13 03:51:42;;;;;;;18.67;11.63;;;18.40;92.20;;;;;;5093765;28;20040;-68
2023/06/13 03:54:08;;;;;;;16.48;8.93;;;;;;;;;;5093229;28;20040;-69
2023/06/13 03:56:34;;;;;;;28.08;17.63;;;;;;;;;;5093746;28;20028;-69
2023/06/13 03:59:00;;;;;;;23.23;11.35;;;;;;;;;;5059935;28;20045;-69
2023/06/13 04:01:26;;;;;;;24.42;10.32;;;19.10;92.60;;;;;;5093191;28;20045;-68
2023/06/13 04:03:52;;;;;;;19.48;11.48;;;;;;;;;;5089691;28;20050;-69
2023/06/13 04:06:18;;;;;;;20.98;9.13;;;18.90;92.60;;;;;;5056792;28;20465;-69
2023/06/13 04:08:44;;;;;;;18.40;8.88;;;;;;;;;;5074126;28;20071;-71
2023/06/13 04:11:10;;;;;;;11.50;8.18;;;16.70;92.10;;;;;;5084272;28;20037;-71
2023/06/13 04:13:36;;;;;;;16.70;9.45;;;;;;;;;;5094159;28;20089;-71
2023/06/13 04:16:02;;;;;;;17.33;8.75;;;18.70;92.70;;;;;;5069207;28;20090;-71
2023/06/13 04:18:29;;;;;;;15.77;8.23;;;;;;;;;;5072922;28;20349;-71
2023/06/13 04:20:57;;;;;;;16.10;9.27;;;;;;;;;;5082371;28;20130;-71
2023/06/13 04:23:25;;;;;;;13.90;8.60;;;16.80;92.00;;;;;;5093225;28;20040;-71
2023/06/13 04:25:52;;;;;;;18.33;9.32;;;18.00;85.60;;;;;;5093244;28;20040;-71
2023/06/13 04:28:18;;;;;;;18.80;9.88;;;18.90;92.60;;;;;;5076132;28;20122;-69
2023/06/13 04:30:47;;;;;;;17.10;8.50;;;16.90;92.20;;;;;;5092976;28;20074;-69
2023/06/13 04:33:17;;;;;;;16.15;8.75;;;17.80;84.50;;;;;;5082839;28;20048;-68
2023/06/13 04:35:49;;;;;;;13.18;9.55;;;17.60;88.90;;;;;;5076416;28;20068;-69
2023/06/13 04:38:16;;;;;;;;;;;17.80;88.30;;;;;;5069973;28;20063;-69
2023/06/13 04:40:42;;;;;;;16.27;8.48;;;18.70;92.80;;;;;;5065441;28;20361;-69
2023/06/13 04:43:09;;;;;;;12.27;7.55;;;16.70;92.30;;;;;;5055798;28;20115;-69
2023/06/13 04:45:36;;;;;;;16.35;10.57;;;18.50;92.70;;;;;;5072576;28;20079;-69
2023/06/13 04:48:03;;;;;;;14.60;7.93;;;18.20;92.50;;;;;;5072372;28;20052;-69
2023/06/13 04:50:31;;;;;;;31.38;8.57;;;16.80;92.20;;;;;;5056514;28;20492;-69
2023/06/13 04:52:57;;;;;;;17.85;8.82;;;18.30;92.20;;;;;;5078019;28;20511;-69
2023/06/13 04:55:29;;;;;;;16.58;8.73;;;18.90;92.70;;;;;;5066644;28;20039;-69
2023/06/13 04:57:55;;;;;;;11.85;8.23;;;18.70;92.50;;;;;;5067281;28;20043;-69
2023/06/13 05:00:22;;;;;;;19.98;8.70;;;16.80;92.00;;;;;;5080817;28;20047;-69
2023/06/13 05:02:48;;;;;;;17.05;7.47;;;19.00;92.60;;;;;;5068935;28;20056;-69
2023/06/13 05:05:16;;;;;;;16.33;9.27;;;18.90;92.60;;;;;;5078781;28;20045;-69
2023/06/13 05:07:42;;;;;;;12.15;7.50;;;18.60;92.50;;;;;;5076215;28;20083;-69
2023/06/13 05:10:08;;;;;;;14.30;7.95;;;19.00;92.70;;;;;;5075588;28;20044;-69
2023/06/13 05:12:34;;;;;;;19.38;8.80;;;;;;;;;;5088674;28;20040;-69
2023/06/13 05:15:00;;;;;;;12.95;8.77;;;18.60;92.50;;;;;;5039151;28;20051;-69
2023/06/13 05:17:27;;;;;;;11.70;7.32;;;19.00;92.50;;;;;;5079078;28;20044;-69
2023/06/13 05:19:54;;;;;;;12.30;7.90;;;18.10;86.10;;;;;;5091869;28;20403;-68
2023/06/13 05:22:20;;;;;;;15.52;8.18;;;19.00;92.30;;;;;;5058728;28;20120;-69
2023/06/13 05:24:47;;;;;;;16.42;7.85;;;;;;;;;;5061528;28;20443;-69
2023/06/13 05:27:13;;;;;;;12.93;8.85;;;18.90;89.00;;;;;;5071640;28;20385;-69
2023/06/13 05:29:40;;;;;;;16.90;8.70;;;;;;;;;;5090537;28;20488;-72
2023/06/13 05:32:06;;;;;;;13.55;8.40;;;18.10;85.10;;;;;;5092365;28;20036;-72
2023/06/13 05:34:32;;;;;;;16.10;8.63;;;18.80;86.40;;;;;;5090833;28;20060;-72
2023/06/13 05:36:58;;;;;;;11.60;7.55;;;18.40;89.90;;;;;;5075396;28;20075;-71
2023/06/13 05:39:24;;;;;;;14.13;8.23;;;;;;;;;;5075603;28;20082;-72
2023/06/13 05:41:50;;;;;;;14.63;8.52;;;17.60;91.50;;;;;;5071803;28;20029;-72
2023/06/13 05:44:16;;;;;;;14.15;7.97;;;;;;;;;;5080930;28;20055;-71
2023/06/13 05:46:42;;;;;;;12.60;8.45;;;;;;;;;;5071663;28;20128;-68
2023/06/13 05:49:08;;;;;;;15.32;8.00;;;;;;;;;;5054940;28;20052;-69
2023/06/13 05:51:34;;;;;;;16.92;9.38;;;19.20;91.90;;;;;;5090589;28;20036;-75
2023/06/13 05:54:01;;;;;;;15.52;7.88;;;;;;;;;;5075072;28;20170;-67
2023/06/13 05:56:27;;;;;;;15.43;8.07;;;;;;;;;;5090847;28;20380;-68
2023/06/13 05:58:53;;;;;;;13.20;7.43;;;;;;;;;;5076953;28;20081;-68
2023/06/13 06:01:21;;;;;;;12.77;7.30;;;18.40;91.30;;;;;;5070948;28;20365;-70
2023/06/13 06:03:47;;;;;;;14.25;7.32;;;;;;;;;;5077966;28;20044;-68
2023/06/13 06:06:13;;;;;;;13.25;7.75;;;19.20;84.20;;;;;;5060927;28;20036;-68
2023/06/13 06:08:39;;;;;;;13.38;7.50;;;19.60;88.00;;;;;;5054114;28;20150;-68
2023/06/13 06:11:05;;;;;;;15.10;7.82;;;19.60;87.10;;;;;;5076125;28;20408;-67
2023/06/13 06:13:31;;;;;;;16.90;7.95;;;19.00;84.30;;;;;;5089612;28;20131;-68
2023/06/13 06:15:57;;;;;;;20.90;7.68;;;;;;;;;;5062510;28;20111;-67
2023/06/13 06:18:23;;;;;;;16.67;8.07;;;18.50;90.70;;;;;;5089699;28;20048;-67
2023/06/13 06:20:49;;;;;;;16.33;7.35;;;;;;;;;;5067243;28;20060;-68
2023/06/13 06:23:16;;;;;;;14.50;7.07;;;;;;;;;;5059304;28;20078;-68
2023/06/13 06:25:42;;;;;;;10.73;6.95;;;19.10;87.00;;;;;;5051724;28;20040;-67
2023/06/13 06:28:08;;;;;;;11.73;6.40;;;19.40;90.60;;;;;;5087541;28;20032;-68
2023/06/13 06:30:35;;;;;;;16.25;6.78;;;;;;;;;;5087279;28;20498;-68
2023/06/13 06:33:01;;;;;;;17.30;7.30;;;;;;;;;;5076795;28;21264;-68
2023/06/13 06:35:27;;;;;;;15.88;7.00;;;19.60;90.40;;;;;;5072190;28;20043;-68
2023/06/13 06:37:53;;;;;;;15.45;7.20;;;;;;;;;;5081849;28;20036;-67
2023/06/13 06:40:19;;;;;;;17.08;6.55;;;20.00;90.50;;;;;;5089728;28;20164;-67
2023/06/13 06:42:45;;;;;;;12.65;6.70;;;18.40;86.00;;;;;;5070358;28;20540;-68
2023/06/13 06:45:12;;;;;;;13.30;6.53;;;18.60;90.10;;;;;;5070393;28;20298;-68
2023/06/13 06:47:38;;;;;;;13.95;7.20;;;19.30;81.20;;;;;;5080824;28;20044;-67
2023/06/13 06:50:05;;;;;;;13.98;6.85;;;20.10;86.40;;;;;;5090117;28;20111;-68
2023/06/13 06:52:30;;;;;;;15.50;6.50;;;20.20;90.20;;;;;;5080660;28;20040;-67
2023/06/13 06:54:56;;;;;;;10.73;6.32;;;19.20;89.80;;;;;;5076039;28;20043;-70
2023/06/13 06:57:22;;;;;;;13.63;7.00;;;;;;;;;;5077917;28;20029;-70
2023/06/13 06:59:48;;;;;;;16.55;6.53;;;19.80;85.00;;;;;;5084938;28;20037;-68
2023/06/13 07:02:14;;;;;;;10.32;6.38;;;;;;;;;;5078078;28;20059;-70
2023/06/13 07:04:40;;;;;;;13.23;6.78;;;20.50;90.10;;;;;;5088056;28;20557;-70
2023/06/13 07:07:06;;;;;;;17.20;6.50;;;20.30;90.10;;;;;;5082018;28;20032;-70
2023/06/13 07:09:32;;;;;;;13.95;6.20;;;20.60;86.40;;;;;;5084697;28;20032;-71
2023/06/13 07:11:58;;;;;;;12.35;6.10;;;;;;;;;;5086999;28;20476;-71
2023/06/13 07:14:25;;;;;;;13.45;5.90;;;20.60;90.00;;;;;;5081347;28;20105;-71
2023/06/13 07:16:52;;;;;;;12.60;6.05;;;19.80;79.60;;;;;;5088056;28;20503;-71
2023/06/13 07:19:18;;;;;;;15.15;7.07;;;20.60;89.60;;;;;;5089690;28;20040;-71
2023/06/13 07:21:44;;;;;;;13.13;5.68;;;;;;;;;;5077068;28;20028;-71
2023/06/13 07:24:10;;;;;;;12.98;6.10;;;20.80;86.90;;;;;;5083985;28;20047;-71
2023/06/13 07:26:35;;;;;;;13.50;5.97;;;20.90;89.60;;;;;;5066205;28;20115;-72
2023/06/13 07:29:01;;;;;;;13.75;5.72;;;20.10;79.30;;;;;;5068926;28;20036;-68
2023/06/13 07:31:27;;;;;;;12.15;5.88;;;;;;;;;;5073844;28;20040;-68
2023/06/13 07:33:53;;;;;;;20.98;6.40;;;20.30;88.40;;;;;;5069801;28;20043;-68
2023/06/13 07:36:19;;;;;;;14.70;7.00;;;;;;;;;;5090861;28;20389;-68
2023/06/13 07:38:45;;;;;;;10.15;5.75;;;;;;;;;;5055703;28;20127;-68
2023/06/13 07:41:11;;;;;;;9.45;5.65;;;19.50;87.00;;;;;;5076443;28;20043;-68
2023/06/13 07:43:37;;;;;;;26.77;5.70;;;21.20;86.20;;;;;;5081169;28;20032;-68
2023/06/13 07:46:03;;;;;;;8.20;5.25;;;;;;;;;;5080347;28;20032;-68
2023/06/13 07:48:29;;;;;;;14.23;5.70;;;20.90;79.80;;;;;;5066584;28;20400;-68
2023/06/13 07:50:55;;;;;;;11.88;6.18;;;;;;;;;;5072884;28;20052;-68
2023/06/13 07:53:21;;;;;;;13.13;5.95;;;21.40;86.40;;;;;;5078672;28;20555;-68
2023/06/13 07:55:47;;;;;;;10.95;6.00;;;20.30;82.30;;;;;;5073491;28;20075;-68
2023/06/13 07:58:14;;;;;;;11.40;5.80;;;20.00;84.80;;;;;;5076075;28;20044;-68
2023/06/13 08:00:40;;;;;;;10.18;5.63;;;20.40;84.60;;;;;;5056801;28;20063;-68
2023/06/13 08:03:05;;;;;;;9.90;5.50;;;21.70;84.90;;;;;;5081118;28;20053;-68
2023/06/13 08:05:31;;;;;;;13.70;5.55;;;21.50;84.50;;;;;;5074632;28;20105;-68
2023/06/13 08:07:58;;;;;;;15.02;6.07;;;21.70;84.60;;;;;;5058028;28;20386;-68
2023/06/13 08:10:25;;;;;;;18.67;6.15;;;;;;;;;;5055614;28;20066;-68
2023/06/13 08:12:52;;;;;;;13.52;5.10;;;21.10;75.20;;;;;;5058471;28;20040;-68
2023/06/13 08:15:18;;;;;;;15.68;6.68;;;22.00;84.40;;;;;;5044824;28;20044;-70
2023/06/13 08:17:43;;;;;;;12.27;5.80;;;20.90;83.20;;;;;;5085974;28;20085;-70
2023/06/13 08:20:10;;;;;;;11.10;6.00;;;21.20;74.20;;;;;;5080131;28;20108;-71
2023/06/13 08:22:40;;;;;;;12.93;5.60;;;20.60;82.80;;;;;;5088388;28;20043;-71
2023/06/13 08:25:09;;;;;;;10.00;5.55;;;22.10;83.60;;;;;;5080630;28;20032;-71
2023/06/13 08:27:36;;;;;;;10.02;5.10;;;20.70;82.20;;;;;;5089518;28;20400;-71
2023/06/13 08:30:06;;;;;;;9.38;5.47;;;21.80;70.80;;;;;;5088005;28;20035;-71
2023/06/13 08:32:32;;;;;;;16.65;5.53;;;22.30;81.80;;;;;;5080952;28;20135;-71
2023/06/13 08:35:01;;;;;;;12.63;5.50;;;21.70;71.50;;;;;;5082536;28;20549;-71
2023/06/13 08:37:28;;;;;;;16.50;6.20;;;;;;;;;;5079260;28;20102;-71
2023/06/13 08:39:54;;;;;;;8.55;5.88;;;22.60;73.50;;;;;;5064935;28;20067;-71
2023/06/13 08:42:20;;;;;;;52.50;7.60;;;22.90;74.90;;;;;;5080498;28;20526;-71
2023/06/13 08:44:47;;;;;;;12.13;5.70;;;22.80;77.90;;;;;;5067825;28;20043;-71
2023/06/13 08:47:13;;;;;;;10.43;5.85;;;23.00;77.50;;;;;;5077449;28;20051;-71
2023/06/13 08:49:39;;;;;;;14.30;6.07;;;22.30;79.80;;;;;;5080545;28;20357;-70
2023/06/13 08:52:13;;;;;;;8.80;6.25;;;22.80;78.90;;;;;;5080572;28;20033;-70
2023/06/13 08:54:43;;;;;;;12.80;6.50;;;23.10;78.70;;;;;;5075670;28;20040;-79
2023/06/13 08:57:14;;;;;;;17.67;6.72;;;22.50;78.70;;;;;;5080883;28;20032;-79
2023/06/13 08:59:44;;;;;;;14.77;6.53;;;23.30;79.40;;;;;;5085117;28;20048;-71
2023/06/13 09:02:15;;;;;;;9.15;6.28;;;23.50;79.40;;;;;;5083914;28;20467;-72
2023/06/13 09:04:43;;;;;;;16.90;6.93;;;22.80;78.50;;;;;;5080701;28;20039;-71
2023/06/13 09:07:10;;;;;;;15.23;6.55;;;23.00;78.40;;;;;;5085374;28;20399;-71
2023/06/13 09:09:37;;;;;;;9.93;6.68;;;22.90;78.40;;;;;;5077983;28;20039;-71
2023/06/13 09:12:06;;;;;;;15.05;6.63;;;22.70;78.10;;;;;;5084290;28;20395;-71
2023/06/13 09:14:32;;;;;;;20.40;6.72;;;23.90;78.30;;;;;;5084416;28;20489;-71
2023/06/13 09:16:58;;;;;;;16.85;6.15;;;22.90;77.70;;;;;;5066589;28;20119;-71
2023/06/13 09:19:24;;;;;;;12.02;6.55;;;24.00;77.80;;;;;;5077839;28;20083;-71
2023/06/13 09:21:50;;;;;;;15.88;6.95;;;23.20;77.10;;;;;;5075105;28;20072;-71
2023/06/13 09:24:17;;;;;;;14.52;7.10;;;23.00;76.80;;;;;;5080573;28;20098;-71
2023/06/13 09:26:43;;;;;;;12.57;6.60;;;23.50;76.60;;;;;;5085096;28;20043;-71
2023/06/13 09:29:09;;;;;;;12.45;6.50;;;24.10;75.10;;;;;;5082987;28;20048;-71
2023/06/13 09:31:38;;;;;;;15.93;6.05;;;24.40;76.50;;;;;;5084052;28;20031;-72
2023/06/13 09:34:07;;;;;;;11.77;6.60;;;24.50;76.30;;;;;;5072387;28;20039;-72
2023/06/13 09:36:37;;;;;;;14.73;6.75;;;24.10;76.40;;;;;;5075279;28;20047;-72
2023/06/13 09:39:04;;;;;;;10.77;7.03;;;23.90;72.30;;;;;;5091927;28;20047;-72
2023/06/13 09:41:31;;;;;;;14.23;6.78;;;24.70;76.20;;;;;;5091878;28;20043;-71
2023/06/13 09:44:04;;;;;;;15.15;6.38;;;24.60;75.80;;;;;;5074967;28;20032;-72
2023/06/13 09:46:35;;;;;;;13.63;6.78;;;24.60;75.70;;;;;;5092336;28;20036;-71
2023/06/13 09:49:01;;;;;;;16.98;6.70;;;25.00;68.20;;;;;;5092187;28;20048;-71
2023/06/13 09:51:32;;;;;;;9.93;6.40;;;25.10;76.20;;;;;;5092286;28;20079;-68
2023/06/13 09:54:00;;;;;;;16.45;6.90;;;25.00;75.80;;;;;;5091762;28;20036;-69
2023/06/13 09:56:26;;;;;;;13.18;7.13;;;25.40;75.40;;;;;;5092161;28;20123;-68
2023/06/13 09:58:52;;;;;;;11.77;6.55;;;;;;;;;;5074939;28;20453;-68
2023/06/13 10:01:19;;;;;;;12.90;7.22;;;24.90;64.50;;;;;;5091722;28;20056;-68
2023/06/13 10:03:46;;;;;;;10.88;5.95;;;;;;;;;;5074971;28;20040;-68
2023/06/13 10:06:12;;;;;;;12.50;6.10;;;25.30;66.10;;;;;;5093125;28;20066;-68
2023/06/13 10:08:38;;;;;;;12.73;6.13;;;25.10;74.90;;;;;;5091674;28;20036;-68
2023/06/13 10:11:14;;;;;;;10.35;6.13;;;25.60;63.80;;;;;;5091540;28;20048;-68
2023/06/13 10:14:07;;;;;;;16.05;6.35;;;25.60;67.80;;;;;;5091913;28;20036;-69
2023/06/13 10:16:40;;;;;;;20.38;6.68;;;25.40;75.00;;;;;;5078737;28;20040;-69
2023/06/13 10:19:11;;;;;;;10.57;6.03;;;25.50;74.60;;;;;;5095448;28;20048;-68
2023/06/13 10:21:38;;;;;;;10.95;5.68;;;25.50;66.10;;;;;;5095819;28;20048;-68
2023/06/13 10:24:05;;;;;;;12.57;6.20;;;25.60;66.40;;;;;;5095145;28;20036;-69
2023/06/13 10:26:39;;;;;;;11.88;5.97;;;25.60;63.70;;;;;;5083758;28;20356;-69
2023/06/13 10:29:38;;;;;;;19.77;6.30;;;25.90;72.00;;;;;;5065723;28;20507;-69
2023/06/13 10:32:19;;;;;;;12.48;6.00;;;25.40;72.60;;;;;;5075468;28;20052;-69
2023/06/13 10:35:22;;;;;;;19.90;5.65;;;25.20;75.20;;;;;;5089197;28;20386;-69
2023/06/13 10:38:06;;;;;;;;;;;25.50;66.10;;;;;;5087153;28;20077;-69
2023/06/13 10:40:41;;;;;;;14.55;5.55;;;25.40;64.20;;;;;;5093679;28;19962;-69
2023/06/13 10:43:15;;;;;;;13.90;5.68;;;25.50;75.90;;;;;;5094808;28;20043;-69
2023/06/13 10:45:44;;;;;;;14.77;5.15;;;25.50;75.90;;;;;;5077338;28;20488;-69
2023/06/13 10:48:10;;;;;;;9.52;5.50;;;25.60;75.90;;;;;;5069555;28;20036;-69
2023/06/13 10:50:40;;;;;;;17.50;5.57;;;25.60;64.60;;;;;;5081915;28;20067;-69
2023/06/13 10:53:22;;;;;;;13.63;6.13;;;26.10;75.90;;;;;;5094742;28;20068;-69
2023/06/13 10:55:49;;;;;;;;;;;25.90;67.60;;;;;;5063551;28;20070;-69
2023/06/13 10:58:16;;;;;;;12.88;5.40;;;26.00;75.40;;;;;;5089535;28;20391;-69
2023/06/13 11:00:43;;;;;;;22.55;5.72;;;26.20;75.70;;;;;;5079958;28;20036;-69
2023/06/13 11:03:11;;;;;;;12.48;5.70;;;26.00;75.70;;;;;;5074566;28;20078;-69
2023/06/13 11:05:46;;;;;;;17.85;5.50;;;26.20;75.80;;;;;;5075261;28;20045;-69
2023/06/13 11:08:22;;;;;;;13.30;5.10;;;26.20;76.40;;;;;;5074962;28;20044;-68
2023/06/13 11:10:50;;;;;;;16.13;5.30;;;26.10;77.00;;;;;;5057157;28;20106;-69
2023/06/13 11:13:24;;;;;;;16.88;5.03;;;26.30;66.90;;;;;;5074416;28;20047;-69
2023/06/13 11:15:54;;;;;;;12.38;5.20;;;26.10;77.80;;;;;;5094143;28;20048;-69
2023/06/13 11:18:19;;;;;;;18.88;5.57;;;25.40;77.20;;;;;;5093226;28;20480;-69
2023/06/13 11:20:55;;;;;;;12.63;5.30;;;26.50;77.10;;;;;;5074466;28;20040;-69
2023/06/13 11:23:32;;;;;;;14.02;5.78;;;25.30;75.80;;;;;;5079773;28;20040;-69
2023/06/13 11:25:58;;;;;;;18.02;5.40;;;25.10;73.90;;;;;;5074941;28;20047;-69
2023/06/13 11:28:24;;;;;;;13.82;5.60;;;26.10;75.90;;;;;;5058710;28;20393;-68
2023/06/13 11:30:52;;;;;;;27.38;5.65;;;25.60;75.80;;;;;;5074830;28;20450;-68
2023/06/13 11:33:19;;;;;;;15.10;5.30;;;25.00;73.70;;;;;;5077353;28;20040;-68
2023/06/13 11:35:56;;;;;;;16.70;4.95;;;25.20;76.10;;;;;;5072227;28;20040;-68
2023/06/13 11:38:28;;;;;;;18.00;5.68;;;25.50;76.80;;;;;;5062663;28;20036;-68
2023/06/13 11:40:58;;;;;;;20.00;4.82;;;25.60;77.20;;;;;;5088544;28;20463;-69
2023/06/13 11:43:25;;;;;;;12.02;4.82;;;26.00;77.50;;;;;;5087473;28;20028;-69
2023/06/13 11:46:00;;;;;;;11.45;4.63;;;25.10;76.90;;;;;;5080536;28;20047;-69
2023/06/13 11:48:26;;;;;;;23.98;4.60;;;26.00;77.80;;;;;;5082409;28;20392;-69
2023/06/13 11:50:52;;;;;;;20.90;6.30;;;25.80;77.70;;;;;;5074388;28;20399;-69
2023/06/13 11:53:19;;;;;;;17.27;4.63;;;25.10;77.10;;;;;;5093204;28;20384;-68
2023/06/13 11:55:45;;;;;;;18.90;4.85;;;25.20;76.90;;;;;;5092924;28;20093;-68
2023/06/13 11:58:11;;;;;;;13.80;4.82;;;25.70;77.50;;;;;;5094813;28;20055;-69
2023/06/13 12:00:53;;;;;;;13.65;4.53;;;25.90;77.30;;;;;;5079580;28;20040;-68
2023/06/13 12:03:22;;;;;;;14.10;4.57;;;25.70;76.80;;;;;;5076938;28;20136;-69
2023/06/13 12:05:48;;;;;;;16.33;4.50;;;25.50;77.20;;;;;;5093001;28;20400;-69
2023/06/13 12:08:15;;;;;;;20.77;4.80;;;25.60;77.70;;;;;;5094645;28;20048;-69
2023/06/13 12:10:41;;;;;;;20.70;4.28;;;25.20;68.30;;;;;;5090534;28;20052;-69
2023/06/13 12:13:09;;;;;;;15.98;4.30;;;25.00;76.80;;;;;;5091826;28;20040;-69
2023/06/13 12:15:35;;;;;;;13.02;4.82;;;25.10;76.60;;;;;;5094795;28;20039;-76
2023/06/13 12:18:02;;;;;;;15.55;4.10;;;25.70;76.80;;;;;;5075741;28;20097;-69
2023/06/13 12:20:35;;;;;;;8.80;4.00;;;25.30;71.00;;;;;;5094631;28;20044;-69
2023/06/13 12:23:01;;;;;;;11.68;4.55;;;25.50;73.60;;;;;;5079147;28;20480;-69
2023/06/13 12:25:30;;;;;;;15.82;4.35;;;25.50;74.40;;;;;;5077755;28;20040;-69
2023/06/13 12:27:57;;;;;;;10.38;4.38;;;;;;;;;;5083743;28;20040;-69
2023/06/13 12:30:23;;;;;;;16.95;4.60;;;26.60;74.30;;;;;;5092524;28;20048;-69
2023/06/13 12:32:56;;;;;;;13.52;4.10;;;26.70;73.10;;;;;;5085422;28;20518;-69
2023/06/13 12:35:23;;;;;;;15.60;4.63;;;26.60;74.20;;;;;;5091040;28;20396;-69
2023/06/13 12:38:02;;;;;;;11.35;4.10;;;25.80;70.30;;;;;;5079026;28;20091;-69
2023/06/13 12:40:37;;;;;;;11.65;4.15;;;25.90;73.30;;;;;;5075832;28;20484;-69
2023/06/13 12:43:03;;;;;;;17.75;4.63;;;26.40;73.90;;;;;;5086481;28;20036;-69
2023/06/13 12:45:30;;;;;;;17.20;5.13;;;26.50;74.40;;;;;;5075610;28;20036;-69
2023/06/13 12:47:57;;;;;;;24.00;4.53;;;26.70;75.10;;;;;;5076573;28;20071;-68
2023/06/13 12:50:24;;;;;;;13.45;4.40;;;26.40;75.40;;;;;;5058001;28;20048;-68
2023/06/13 12:53:10;;;;;;;24.33;5.13;;;25.70;75.60;;;;;;5086476;28;20082;-69
2023/06/13 12:55:38;;;;;;;16.95;4.80;;;26.20;76.00;;;;;;5058906;28;20098;-69
2023/06/13 12:58:32;;;;;;;16.40;4.25;;;26.40;76.10;;;;;;5086757;28;20544;-69